ETH725 EKCH-LOWW
Flight info
| Callsign | ETH725 |
|---|---|
| Flight time | N/A |
| Altitude | 41000 |
| Route | SALLO M44 KOGIM DCT LUROS DCT HDO DCT EVIKU DCT BITSI DCT MIKOV MIKOV8W |
| Aircraft | B788/H-SDE1E2E3FGHIJ2J3J4J5M1RWXY/LB1D1 |
Departure
| Time | N/A |
|---|---|
| Airport | Copenhagen Kastrup Airport (EKCH) |
Arrival
| Time | 2026-04-24 19:22 |
|---|---|
| Airport | Vienna International Airport (LOWW) |
| Time | Latitude | Longitude | Altitude | Speed | Heading |
|---|---|---|---|---|---|
| 2026-04-24 18:54 | 49.92141 | 15.35150 | 35999 ft | 479 kts | 136° |
| 2026-04-24 18:55 | 49.87343 | 15.42189 | 35045 ft | 471 kts | 136° |
| 2026-04-24 18:55 | 49.84970 | 15.45664 | 34571 ft | 467 kts | 136° |
| 2026-04-24 18:55 | 49.82643 | 15.49068 | 34102 ft | 464 kts | 136° |
| 2026-04-24 18:56 | 49.80273 | 15.52526 | 33621 ft | 461 kts | 136° |
| 2026-04-24 18:56 | 49.77975 | 15.55877 | 33171 ft | 457 kts | 136° |
| 2026-04-24 18:56 | 49.75637 | 15.59281 | 32718 ft | 454 kts | 136° |
| 2026-04-24 18:56 | 49.73346 | 15.62614 | 32270 ft | 451 kts | 136° |
| 2026-04-24 18:57 | 49.71073 | 15.65916 | 31821 ft | 447 kts | 136° |
| 2026-04-24 18:57 | 49.68815 | 15.69191 | 31372 ft | 444 kts | 136° |
| 2026-04-24 18:57 | 49.66570 | 15.72442 | 30921 ft | 440 kts | 136° |
| 2026-04-24 18:57 | 49.64343 | 15.75663 | 30471 ft | 437 kts | 136° |
| 2026-04-24 18:58 | 49.62134 | 15.78852 | 30021 ft | 433 kts | 136° |
| 2026-04-24 18:58 | 49.59939 | 15.82016 | 29570 ft | 430 kts | 136° |
| 2026-04-24 18:58 | 49.57763 | 15.85150 | 29151 ft | 426 kts | 136° |
| 2026-04-24 18:58 | 49.55631 | 15.88217 | 28757 ft | 422 kts | 136° |
| 2026-04-24 18:59 | 49.53464 | 15.91331 | 28355 ft | 419 kts | 136° |
| 2026-04-24 18:59 | 49.51369 | 15.94337 | 27962 ft | 416 kts | 136° |
| 2026-04-24 18:59 | 49.49258 | 15.97362 | 27564 ft | 413 kts | 136° |
| 2026-04-24 18:59 | 49.47163 | 16.00363 | 27165 ft | 410 kts | 136° |
| 2026-04-24 19:00 | 49.45083 | 16.03338 | 26765 ft | 408 kts | 136° |
| 2026-04-24 19:00 | 49.43009 | 16.06301 | 26366 ft | 405 kts | 136° |
| 2026-04-24 19:00 | 49.40950 | 16.09238 | 25966 ft | 403 kts | 136° |
| 2026-04-24 19:00 | 49.38897 | 16.12163 | 25566 ft | 401 kts | 136° |
| 2026-04-24 19:01 | 49.36858 | 16.15064 | 25166 ft | 399 kts | 136° |
| 2026-04-24 19:01 | 49.34825 | 16.17954 | 24764 ft | 396 kts | 137° |
| 2026-04-24 19:01 | 49.32662 | 16.20541 | 24353 ft | 394 kts | 146° |
| 2026-04-24 19:01 | 49.30362 | 16.22797 | 23970 ft | 391 kts | 149° |
| 2026-04-24 19:02 | 49.28824 | 16.24238 | 23702 ft | 390 kts | 149° |
| 2026-04-24 19:02 | 49.25710 | 16.27021 | 23260 ft | 385 kts | 152° |
| 2026-04-24 19:02 | 49.23355 | 16.28963 | 22936 ft | 382 kts | 153° |
| 2026-04-24 19:02 | 49.20999 | 16.30807 | 22598 ft | 379 kts | 154° |
| 2026-04-24 19:03 | 49.18642 | 16.32598 | 22248 ft | 377 kts | 155° |
| 2026-04-24 19:03 | 49.16290 | 16.34356 | 21896 ft | 375 kts | 155° |
| 2026-04-24 19:03 | 49.13948 | 16.36094 | 21545 ft | 373 kts | 155° |
| 2026-04-24 19:03 | 49.11615 | 16.37819 | 21195 ft | 371 kts | 155° |
| 2026-04-24 19:04 | 49.09297 | 16.39530 | 20845 ft | 370 kts | 155° |
| 2026-04-24 19:04 | 49.06985 | 16.41235 | 20493 ft | 368 kts | 155° |
| 2026-04-24 19:04 | 49.04691 | 16.42924 | 20143 ft | 366 kts | 155° |
| 2026-04-24 19:04 | 49.02396 | 16.44612 | 19792 ft | 364 kts | 155° |
| 2026-04-24 19:05 | 49.00116 | 16.46286 | 19441 ft | 362 kts | 155° |
| 2026-04-24 19:05 | 48.97849 | 16.47949 | 19090 ft | 361 kts | 155° |
| 2026-04-24 19:05 | 48.95595 | 16.49599 | 18739 ft | 359 kts | 155° |
| 2026-04-24 19:05 | 48.93287 | 16.50987 | 18365 ft | 356 kts | 165° |
| 2026-04-24 19:06 | 48.90898 | 16.51908 | 18041 ft | 353 kts | 168° |
| 2026-04-24 19:06 | 48.88514 | 16.52781 | 17686 ft | 351 kts | 168° |
| 2026-04-24 19:06 | 48.86156 | 16.53691 | 17333 ft | 349 kts | 167° |
| 2026-04-24 19:06 | 48.83816 | 16.54636 | 16979 ft | 347 kts | 166° |
| 2026-04-24 19:07 | 48.81492 | 16.55603 | 16627 ft | 345 kts | 166° |
| 2026-04-24 19:07 | 48.79187 | 16.56575 | 16275 ft | 343 kts | 166° |
| 2026-04-24 19:07 | 48.77758 | 16.57180 | 16059 ft | 344 kts | 166° |
| 2026-04-24 19:07 | 48.74544 | 16.58542 | 15614 ft | 351 kts | 166° |
| 2026-04-24 19:08 | 48.72182 | 16.59545 | 15292 ft | 354 kts | 166° |
| 2026-04-24 19:08 | 48.69797 | 16.60558 | 14967 ft | 356 kts | 166° |
| 2026-04-24 19:08 | 48.67413 | 16.61569 | 14641 ft | 356 kts | 166° |
| 2026-04-24 19:08 | 48.65026 | 16.62585 | 14314 ft | 356 kts | 166° |
| 2026-04-24 19:09 | 48.62644 | 16.63596 | 13988 ft | 355 kts | 166° |
| 2026-04-24 19:09 | 48.60270 | 16.64599 | 13663 ft | 354 kts | 166° |
| 2026-04-24 19:09 | 48.57900 | 16.65601 | 13336 ft | 353 kts | 166° |
| 2026-04-24 19:09 | 48.55540 | 16.66598 | 13010 ft | 351 kts | 166° |
| 2026-04-24 19:10 | 48.53191 | 16.67588 | 12686 ft | 350 kts | 166° |
| 2026-04-24 19:10 | 48.50816 | 16.68586 | 12356 ft | 349 kts | 167° |
| 2026-04-24 19:10 | 48.48484 | 16.69566 | 12032 ft | 347 kts | 166° |
| 2026-04-24 19:10 | 48.46162 | 16.70543 | 11703 ft | 346 kts | 167° |
| 2026-04-24 19:11 | 48.43880 | 16.71501 | 11378 ft | 344 kts | 167° |
| 2026-04-24 19:11 | 48.41586 | 16.72467 | 11053 ft | 342 kts | 167° |
| 2026-04-24 19:11 | 48.39271 | 16.73439 | 10724 ft | 339 kts | 167° |
| 2026-04-24 19:11 | 48.37033 | 16.74378 | 10398 ft | 337 kts | 167° |
| 2026-04-24 19:12 | 48.34757 | 16.75331 | 10073 ft | 334 kts | 167° |
| 2026-04-24 19:12 | 48.32522 | 16.76265 | 9745 ft | 331 kts | 167° |
| 2026-04-24 19:12 | 48.30325 | 16.77189 | 9418 ft | 324 kts | 167° |
| 2026-04-24 19:12 | 48.28199 | 16.78079 | 9099 ft | 319 kts | 167° |
| 2026-04-24 19:13 | 48.26765 | 16.78677 | 8884 ft | 315 kts | 167° |
| 2026-04-24 19:13 | 48.23986 | 16.79831 | 8451 ft | 310 kts | 167° |
| 2026-04-24 19:13 | 48.21918 | 16.80690 | 8124 ft | 307 kts | 167° |
| 2026-04-24 19:13 | 48.19870 | 16.81541 | 7792 ft | 304 kts | 167° |
| 2026-04-24 19:14 | 48.17839 | 16.82386 | 7465 ft | 301 kts | 167° |
| 2026-04-24 19:14 | 48.15832 | 16.83235 | 7135 ft | 299 kts | 166° |
| 2026-04-24 19:14 | 48.14001 | 16.84706 | 6818 ft | 299 kts | 146° |
| 2026-04-24 19:14 | 48.12350 | 16.86549 | 6585 ft | 294 kts | 144° |
| 2026-04-24 19:15 | 48.10737 | 16.88364 | 6318 ft | 286 kts | 144° |
| 2026-04-24 19:15 | 48.09168 | 16.90130 | 6066 ft | 279 kts | 144° |
| 2026-04-24 19:15 | 48.07630 | 16.91861 | 5807 ft | 273 kts | 144° |
| 2026-04-24 19:15 | 48.06029 | 16.93250 | 5475 ft | 262 kts | 163° |
| 2026-04-24 19:16 | 48.02737 | 16.92527 | 4982 ft | 237 kts | 219° |
| 2026-04-24 19:16 | 48.01725 | 16.90681 | 4761 ft | 228 kts | 248° |
| 2026-04-24 19:16 | 48.01322 | 16.88456 | 4588 ft | 217 kts | 265° |
| 2026-04-24 19:17 | 48.01351 | 16.86251 | 4380 ft | 207 kts | 281° |
| 2026-04-24 19:17 | 48.01784 | 16.84259 | 4232 ft | 198 kts | 295° |
| 2026-04-24 19:17 | 48.02439 | 16.82525 | 4151 ft | 186 kts | 302° |
| 2026-04-24 19:17 | 48.03123 | 16.80948 | 4065 ft | 178 kts | 303° |
| 2026-04-24 19:18 | 48.03779 | 16.79386 | 3852 ft | 176 kts | 301° |
| 2026-04-24 19:18 | 48.04376 | 16.77799 | 3562 ft | 174 kts | 298° |
| 2026-04-24 19:18 | 48.04902 | 16.76174 | 3321 ft | 173 kts | 295° |
| 2026-04-24 19:18 | 48.05380 | 16.74554 | 3093 ft | 164 kts | 294° |
| 2026-04-24 19:19 | 48.05831 | 16.73049 | 2875 ft | 156 kts | 295° |
| 2026-04-24 19:19 | 48.06297 | 16.71592 | 2690 ft | 155 kts | 297° |
| 2026-04-24 19:19 | 48.06787 | 16.70179 | 2466 ft | 148 kts | 298° |
| 2026-04-24 19:19 | 48.07248 | 16.68851 | 2259 ft | 141 kts | 298° |
| 2026-04-24 19:20 | 48.07668 | 16.67559 | 2038 ft | 135 kts | 297° |
| 2026-04-24 19:20 | 48.08060 | 16.66285 | 1852 ft | 137 kts | 297° |
| 2026-04-24 19:20 | 48.08471 | 16.64978 | 1669 ft | 140 kts | 297° |
| 2026-04-24 19:20 | 48.08899 | 16.63666 | 1509 ft | 140 kts | 298° |
| 2026-04-24 19:21 | 48.09335 | 16.62356 | 1323 ft | 141 kts | 298° |
| 2026-04-24 19:21 | 48.09771 | 16.61037 | 1138 ft | 141 kts | 298° |
| 2026-04-24 19:21 | 48.10199 | 16.59714 | 951 ft | 141 kts | 298° |
| 2026-04-24 19:21 | 48.10631 | 16.58394 | 770 ft | 141 kts | 298° |
| 2026-04-24 19:22 | 48.10918 | 16.57518 | 644 ft | 141 kts | 298° |
| 2026-04-24 19:22 | 48.11414 | 16.55999 | 614 ft | 93 kts | 295° |
| 2026-04-24 19:22 | 48.11604 | 16.55443 | 614 ft | 37 kts | 311° |
| 2026-04-24 19:22 | 48.11727 | 16.55257 | 614 ft | 16 kts | 316° |
| 2026-04-24 19:23 | 48.11792 | 16.55177 | 614 ft | 12 kts | 333° |
| 2026-04-24 19:23 | 48.11837 | 16.55162 | 614 ft | 1 kts | 359° |
| 2026-04-24 19:23 | 48.11847 | 16.55163 | 614 ft | 4 kts | 6° |
| 2026-04-24 19:23 | 48.11870 | 16.55200 | 614 ft | 7 kts | 78° |
| 2026-04-24 19:24 | 48.11852 | 16.55299 | 614 ft | 13 kts | 117° |
| 2026-04-24 19:24 | 48.11801 | 16.55449 | 614 ft | 19 kts | 117° |
| 2026-04-24 19:24 | 48.11737 | 16.55647 | 614 ft | 23 kts | 115° |
| 2026-04-24 19:24 | 48.11665 | 16.55871 | 614 ft | 24 kts | 116° |
| 2026-04-24 19:25 | 48.11594 | 16.56089 | 614 ft | 23 kts | 116° |
| 2026-04-24 19:25 | 48.11527 | 16.56292 | 614 ft | 21 kts | 116° |
| 2026-04-24 19:25 | 48.11468 | 16.56470 | 614 ft | 14 kts | 114° |
| 2026-04-24 19:25 | 48.11425 | 16.56607 | 614 ft | 15 kts | 117° |
| 2026-04-24 19:26 | 48.11371 | 16.56767 | 614 ft | 17 kts | 119° |
| 2026-04-24 19:26 | 48.11327 | 16.56910 | 614 ft | 15 kts | 114° |
| 2026-04-24 19:26 | 48.11281 | 16.57051 | 614 ft | 16 kts | 115° |
| 2026-04-24 19:26 | 48.11240 | 16.57180 | 614 ft | 9 kts | 114° |
| 2026-04-24 19:27 | 48.11240 | 16.57275 | 614 ft | 11 kts | 50° |
| 2026-04-24 19:27 | 48.11320 | 16.57345 | 614 ft | 16 kts | 26° |
| 2026-04-24 19:27 | 48.11433 | 16.57426 | 614 ft | 20 kts | 25° |
| 2026-04-24 19:27 | 48.11562 | 16.57450 | 614 ft | 20 kts | 349° |
| 2026-04-24 19:28 | 48.11684 | 16.57401 | 614 ft | 10 kts | 348° |
| 2026-04-24 19:28 | 48.11698 | 16.57396 | 614 ft | 0 kts | 345° |
| 2026-04-24 19:29 | 48.11717 | 16.57388 | 614 ft | 6 kts | 343° |
| 2026-04-24 19:29 | 48.11771 | 16.57353 | 614 ft | 11 kts | 324° |
| 2026-04-24 19:29 | 48.11823 | 16.57246 | 614 ft | 13 kts | 295° |
| 2026-04-24 19:30 | 48.11851 | 16.57160 | 614 ft | 4 kts | 295° |
| 2026-04-24 19:30 | 48.11852 | 16.57158 | 614 ft | 1 kts | 295° |
| 2026-04-24 19:30 | 48.11864 | 16.57120 | 614 ft | 7 kts | 296° |
| 2026-04-24 19:30 | 48.11884 | 16.57058 | 614 ft | 4 kts | 294° |
| 2026-04-24 19:31 | 48.11902 | 16.57024 | 614 ft | 5 kts | 339° |
| 2026-04-24 19:31 | 48.11943 | 16.57040 | 614 ft | 9 kts | 25° |
| 2026-04-24 19:31 | 48.11980 | 16.57065 | 614 ft | 3 kts | 25° |
| 2026-04-24 19:31 | 48.11983 | 16.57067 | 614 ft | 0 kts | 25° |